EGCN

Robin Hood Doncaster Sheffield Airport

Doncaster, United Kingdom
METAR EGCN 260250Z AUTO 04005KT 9999 FEW034/// BKN040/// OVC047/// 00/M01 Q1035
Observed Flight Rules
Feb-26 @ 02:50 UTC (26 minutes ago) Visual Flight Rules
Wind Visibility Clouds
40° at 5 knots 10,000+ meters
  • Few at 3,400' AGL
  • Broken at 4,000' AGL
  • Overcast at 4,700' AGL
Temperatures Readings
Current 0°C / 32°F
Dewpoint -1°C / 30°F
Humidity 93%
Altimeter 30.56" Hg
Pressure 1035 hPa
Elevation 17
METAR EGCN 260250Z AUTO 04005KT 9999 FEW034/// BKN040/// OVC047/// 00/M01 Q1035
Observed Flight Rules
Feb-26 @ 02:50 UTC
(26 minutes ago)
VFR
Wind Visibility
40° at 5 knots 10,000+ meters
Clouds
  • Few at 3,400' AGL
  • Broken at 4,000' AGL
  • Overcast at 4,700' AGL
Temperature Dewpoint
0°C / 32°F -1°C / 30°F
Humidity Altimeter Pressure
93% 30.56" Hg 1035 hPa